sensor_id;sensor_type;location;lat;lon;timestamp;temperature;humidity
9965;DHT22;5023;53.554;9.964;2023-03-01T00:03:17;3.30;99.90
9965;DHT22;5023;53.554;9.964;2023-03-01T00:08:20;3.20;99.90
9965;DHT22;5023;53.554;9.964;2023-03-01T00:13:22;3.10;99.90
9965;DHT22;5023;53.554;9.964;2023-03-01T00:18:24;3.10;99.90
9965;DHT22;5023;53.554;9.964;2023-03-01T00:23:28;3.10;99.90
9965;DHT22;5023;53.554;9.964;2023-03-01T00:28:32;3.10;99.90
9965;DHT22;5023;53.554;9.964;2023-03-01T00:33:34;3.10;99.90
9965;DHT22;5023;53.554;9.964;2023-03-01T00:38:39;3.10;99.90
9965;DHT22;5023;53.554;9.964;2023-03-01T00:43:41;3.10;99.90
9965;DHT22;5023;53.554;9.964;2023-03-01T00:48:44;3.10;99.90
9965;DHT22;5023;53.554;9.964;2023-03-01T00:53:50;3.10;99.90
9965;DHT22;5023;53.554;9.964;2023-03-01T00:58:52;3.10;99.90
9965;DHT22;5023;53.554;9.964;2023-03-01T01:03:57;3.20;99.90
9965;DHT22;5023;53.554;9.964;2023-03-01T01:09:01;3.20;99.90
9965;DHT22;5023;53.554;9.964;2023-03-01T01:14:05;3.20;99.90
9965;DHT22;5023;53.554;9.964;2023-03-01T01:19:11;3.30;99.90
9965;DHT22;5023;53.554;9.964;2023-03-01T01:24:15;3.20;99.90
9965;DHT22;5023;53.554;9.964;2023-03-01T01:29:17;3.10;99.90
9965;DHT22;5023;53.554;9.964;2023-03-01T01:34:21;3.10;99.90
9965;DHT22;5023;53.554;9.964;2023-03-01T01:39:24;3.10;99.90
9965;DHT22;5023;53.554;9.964;2023-03-01T01:44:29;3.10;99.90
9965;DHT22;5023;53.554;9.964;2023-03-01T01:49:33;3.10;99.90
9965;DHT22;5023;53.554;9.964;2023-03-01T01:54:43;3.10;99.90
9965;DHT22;5023;53.554;9.964;2023-03-01T01:59:50;3.00;99.90
9965;DHT22;5023;53.554;9.964;2023-03-01T02:05:02;3.00;99.90
9965;DHT22;5023;53.554;9.964;2023-03-01T02:10:08;3.00;99.90
9965;DHT22;5023;53.554;9.964;2023-03-01T02:15:11;2.90;99.90
9965;DHT22;5023;53.554;9.964;2023-03-01T02:20:20;2.90;99.90
9965;DHT22;5023;53.554;9.964;2023-03-01T02:25:33;2.90;99.90
9965;DHT22;5023;53.554;9.964;2023-03-01T02:30:37;2.90;99.90
9965;DHT22;5023;53.554;9.964;2023-03-01T02:36:00;2.80;99.90
9965;DHT22;5023;53.554;9.964;2023-03-01T02:41:04;2.70;99.90
9965;DHT22;5023;53.554;9.964;2023-03-01T02:46:14;2.70;99.90
9965;DHT22;5023;53.554;9.964;2023-03-01T02:51:24;2.60;99.90
9965;DHT22;5023;53.554;9.964;2023-03-01T02:56:29;2.60;99.90
9965;DHT22;5023;53.554;9.964;2023-03-01T03:01:32;2.60;99.90
9965;DHT22;5023;53.554;9.964;2023-03-01T03:06:38;2.60;99.90
9965;DHT22;5023;53.554;9.964;2023-03-01T03:11:40;2.60;99.90
9965;DHT22;5023;53.554;9.964;2023-03-01T03:16:46;2.60;99.90
9965;DHT22;5023;53.554;9.964;2023-03-01T03:21:49;2.60;99.90
9965;DHT22;5023;53.554;9.964;2023-03-01T03:26:51;2.60;99.90
9965;DHT22;5023;53.554;9.964;2023-03-01T03:31:54;2.50;99.90
9965;DHT22;5023;53.554;9.964;2023-03-01T03:36:56;2.50;99.90
9965;DHT22;5023;53.554;9.964;2023-03-01T03:42:00;2.40;99.90
9965;DHT22;5023;53.554;9.964;2023-03-01T03:47:03;2.40;99.90
9965;DHT22;5023;53.554;9.964;2023-03-01T03:52:05;2.50;99.90
9965;DHT22;5023;53.554;9.964;2023-03-01T03:57:13;2.50;99.90
9965;DHT22;5023;53.554;9.964;2023-03-01T04:02:17;2.70;99.90
9965;DHT22;5023;53.554;9.964;2023-03-01T04:07:24;2.60;99.90
9965;DHT22;5023;53.554;9.964;2023-03-01T04:12:27;2.70;99.90
9965;DHT22;5023;53.554;9.964;2023-03-01T04:17:30;2.70;99.90
9965;DHT22;5023;53.554;9.964;2023-03-01T04:22:32;2.70;99.90
9965;DHT22;5023;53.554;9.964;2023-03-01T04:27:35;2.80;99.90
9965;DHT22;5023;53.554;9.964;2023-03-01T04:32:41;2.80;99.90
9965;DHT22;5023;53.554;9.964;2023-03-01T04:37:43;2.90;99.90
9965;DHT22;5023;53.554;9.964;2023-03-01T04:42:46;3.00;99.90
9965;DHT22;5023;53.554;9.964;2023-03-01T04:47:50;3.00;99.90
9965;DHT22;5023;53.554;9.964;2023-03-01T04:52:54;3.00;99.90
9965;DHT22;5023;53.554;9.964;2023-03-01T04:57:59;3.00;99.90
9965;DHT22;5023;53.554;9.964;2023-03-01T05:03:02;3.00;99.90
9965;DHT22;5023;53.554;9.964;2023-03-01T05:08:07;3.10;99.90
9965;DHT22;5023;53.554;9.964;2023-03-01T05:13:09;3.20;99.90
9965;DHT22;5023;53.554;9.964;2023-03-01T05:18:12;3.10;99.90
9965;DHT22;5023;53.554;9.964;2023-03-01T05:23:18;3.10;99.90
9965;DHT22;5023;53.554;9.964;2023-03-01T05:28:21;3.10;99.90
9965;DHT22;5023;53.554;9.964;2023-03-01T05:33:27;3.10;99.90
9965;DHT22;5023;53.554;9.964;2023-03-01T05:38:29;3.10;99.90
9965;DHT22;5023;53.554;9.964;2023-03-01T05:43:32;3.00;99.90
9965;DHT22;5023;53.554;9.964;2023-03-01T05:48:36;3.00;99.90
9965;DHT22;5023;53.554;9.964;2023-03-01T05:53:41;3.00;99.90
9965;DHT22;5023;53.554;9.964;2023-03-01T05:58:43;3.20;99.90
9965;DHT22;5023;53.554;9.964;2023-03-01T06:03:46;3.20;99.90
9965;DHT22;5023;53.554;9.964;2023-03-01T06:08:48;3.30;99.90
9965;DHT22;5023;53.554;9.964;2023-03-01T06:13:51;3.30;99.90
9965;DHT22;5023;53.554;9.964;2023-03-01T06:18:54;3.30;99.90
9965;DHT22;5023;53.554;9.964;2023-03-01T06:23:59;3.40;99.90
9965;DHT22;5023;53.554;9.964;2023-03-01T06:29:03;3.40;99.90
9965;DHT22;5023;53.554;9.964;2023-03-01T06:34:07;3.40;99.90
9965;DHT22;5023;53.554;9.964;2023-03-01T06:39:08;3.50;99.90
9965;DHT22;5023;53.554;9.964;2023-03-01T06:44:12;3.50;99.90
9965;DHT22;5023;53.554;9.964;2023-03-01T06:49:16;3.50;99.90
9965;DHT22;5023;53.554;9.964;2023-03-01T06:54:18;3.50;99.90
9965;DHT22;5023;53.554;9.964;2023-03-01T06:59:22;3.60;99.90
9965;DHT22;5023;53.554;9.964;2023-03-01T07:04:27;3.60;99.90
9965;DHT22;5023;53.554;9.964;2023-03-01T07:09:31;3.60;99.90
9965;DHT22;5023;53.554;9.964;2023-03-01T07:14:38;3.60;99.90
9965;DHT22;5023;53.554;9.964;2023-03-01T07:19:42;3.50;99.90
9965;DHT22;5023;53.554;9.964;2023-03-01T07:24:45;3.60;99.90
9965;DHT22;5023;53.554;9.964;2023-03-01T07:29:47;3.50;99.90
9965;DHT22;5023;53.554;9.964;2023-03-01T07:34:51;3.70;99.90
9965;DHT22;5023;53.554;9.964;2023-03-01T07:39:56;3.70;99.90
9965;DHT22;5023;53.554;9.964;2023-03-01T07:44:58;3.70;99.90
9965;DHT22;5023;53.554;9.964;2023-03-01T07:50:10;3.80;99.90
9965;DHT22;5023;53.554;9.964;2023-03-01T07:55:17;3.80;99.90
9965;DHT22;5023;53.554;9.964;2023-03-01T08:00:20;3.80;99.90
9965;DHT22;5023;53.554;9.964;2023-03-01T08:05:24;3.90;99.90
9965;DHT22;5023;53.554;9.964;2023-03-01T08:10:26;4.00;99.90
9965;DHT22;5023;53.554;9.964;2023-03-01T08:15:29;4.10;99.90
9965;DHT22;5023;53.554;9.964;2023-03-01T08:20:35;4.10;99.90
9965;DHT22;5023;53.554;9.964;2023-03-01T08:25:37;4.10;99.90
9965;DHT22;5023;53.554;9.964;2023-03-01T08:30:40;4.20;99.90
9965;DHT22;5023;53.554;9.964;2023-03-01T08:35:45;4.20;99.90
9965;DHT22;5023;53.554;9.964;2023-03-01T08:40:47;4.20;99.90
9965;DHT22;5023;53.554;9.964;2023-03-01T08:45:49;4.30;99.90
9965;DHT22;5023;53.554;9.964;2023-03-01T08:50:52;4.40;99.90
9965;DHT22;5023;53.554;9.964;2023-03-01T08:55:55;4.60;99.90
9965;DHT22;5023;53.554;9.964;2023-03-01T09:00:57;4.80;99.90
9965;DHT22;5023;53.554;9.964;2023-03-01T09:06:05;4.90;99.90
9965;DHT22;5023;53.554;9.964;2023-03-01T09:11:09;5.40;99.90
9965;DHT22;5023;53.554;9.964;2023-03-01T09:16:14;5.70;99.90
9965;DHT22;5023;53.554;9.964;2023-03-01T09:21:19;6.00;99.90
9965;DHT22;5023;53.554;9.964;2023-03-01T09:26:24;5.70;99.90
9965;DHT22;5023;53.554;9.964;2023-03-01T09:31:26;5.50;99.90
9965;DHT22;5023;53.554;9.964;2023-03-01T09:36:30;5.50;99.90
9965;DHT22;5023;53.554;9.964;2023-03-01T09:41:46;5.60;99.90
9965;DHT22;5023;53.554;9.964;2023-03-01T09:46:49;5.50;99.90
9965;DHT22;5023;53.554;9.964;2023-03-01T09:52:00;5.50;99.90
9965;DHT22;5023;53.554;9.964;2023-03-01T09:57:15;5.40;99.90
9965;DHT22;5023;53.554;9.964;2023-03-01T10:02:30;5.40;99.90
9965;DHT22;5023;53.554;9.964;2023-03-01T10:07:45;5.40;99.90
9965;DHT22;5023;53.554;9.964;2023-03-01T10:12:49;5.30;99.90
9965;DHT22;5023;53.554;9.964;2023-03-01T10:17:57;5.50;99.90
9965;DHT22;5023;53.554;9.964;2023-03-01T10:23:02;5.60;99.90
9965;DHT22;5023;53.554;9.964;2023-03-01T10:28:12;5.60;99.90
9965;DHT22;5023;53.554;9.964;2023-03-01T10:33:19;5.50;99.90
9965;DHT22;5023;53.554;9.964;2023-03-01T10:38:24;5.60;99.90
9965;DHT22;5023;53.554;9.964;2023-03-01T10:43:29;5.70;99.90
9965;DHT22;5023;53.554;9.964;2023-03-01T10:48:34;5.70;99.90
9965;DHT22;5023;53.554;9.964;2023-03-01T10:53:39;5.80;99.90
9965;DHT22;5023;53.554;9.964;2023-03-01T10:58:57;5.70;99.90
9965;DHT22;5023;53.554;9.964;2023-03-01T11:04:10;5.80;99.90
9965;DHT22;5023;53.554;9.964;2023-03-01T11:09:20;5.80;99.90
9965;DHT22;5023;53.554;9.964;2023-03-01T11:14:23;5.80;99.90
9965;DHT22;5023;53.554;9.964;2023-03-01T11:19:26;5.80;99.90
9965;DHT22;5023;53.554;9.964;2023-03-01T11:24:34;6.10;99.90
9965;DHT22;5023;53.554;9.964;2023-03-01T11:29:41;6.20;99.90
9965;DHT22;5023;53.554;9.964;2023-03-01T11:34:48;6.20;99.90
9965;DHT22;5023;53.554;9.964;2023-03-01T11:39:59;6.40;99.90
9965;DHT22;5023;53.554;9.964;2023-03-01T11:45:10;6.40;99.90
9965;DHT22;5023;53.554;9.964;2023-03-01T11:50:20;6.50;99.90
9965;DHT22;5023;53.554;9.964;2023-03-01T11:55:43;6.70;99.90
9965;DHT22;5023;53.554;9.964;2023-03-01T12:00:58;6.90;99.90
9965;DHT22;5023;53.554;9.964;2023-03-01T12:06:43;7.10;99.90
9965;DHT22;5023;53.554;9.964;2023-03-01T12:12:08;7.50;99.90
9965;DHT22;5023;53.554;9.964;2023-03-01T12:17:25;7.60;99.90
9965;DHT22;5023;53.554;9.964;2023-03-01T12:22:35;7.50;99.90
9965;DHT22;5023;53.554;9.964;2023-03-01T12:27:57;7.60;99.90
9965;DHT22;5023;53.554;9.964;2023-03-01T12:33:14;7.80;99.90
9965;DHT22;5023;53.554;9.964;2023-03-01T12:38:28;7.80;99.90
9965;DHT22;5023;53.554;9.964;2023-03-01T12:43:47;8.00;99.90
9965;DHT22;5023;53.554;9.964;2023-03-01T12:48:57;8.00;99.90
9965;DHT22;5023;53.554;9.964;2023-03-01T12:54:12;8.10;99.90
9965;DHT22;5023;53.554;9.964;2023-03-01T12:59:20;8.20;99.90
9965;DHT22;5023;53.554;9.964;2023-03-01T13:04:35;8.40;99.90
9965;DHT22;5023;53.554;9.964;2023-03-01T13:09:44;8.60;99.90
9965;DHT22;5023;53.554;9.964;2023-03-01T13:14:56;8.80;99.90
9965;DHT22;5023;53.554;9.964;2023-03-01T13:19:58;8.70;99.90
9965;DHT22;5023;53.554;9.964;2023-03-01T13:25:14;8.70;99.90
9965;DHT22;5023;53.554;9.964;2023-03-01T13:30:42;8.80;99.90
9965;DHT22;5023;53.554;9.964;2023-03-01T13:35:44;8.70;99.90
9965;DHT22;5023;53.554;9.964;2023-03-01T13:41:00;8.70;99.90
9965;DHT22;5023;53.554;9.964;2023-03-01T13:46:09;8.80;99.90
9965;DHT22;5023;53.554;9.964;2023-03-01T13:51:12;8.90;99.90
9965;DHT22;5023;53.554;9.964;2023-03-01T13:56:16;8.90;99.90
9965;DHT22;5023;53.554;9.964;2023-03-01T14:01:27;8.70;99.90
9965;DHT22;5023;53.554;9.964;2023-03-01T14:06:34;8.60;99.90
9965;DHT22;5023;53.554;9.964;2023-03-01T14:12:08;8.50;99.90
9965;DHT22;5023;53.554;9.964;2023-03-01T14:22:49;8.30;99.90
9965;DHT22;5023;53.554;9.964;2023-03-01T14:28:02;8.30;99.90
9965;DHT22;5023;53.554;9.964;2023-03-01T14:33:29;8.40;99.90
9965;DHT22;5023;53.554;9.964;2023-03-01T14:38:35;8.50;99.90
9965;DHT22;5023;53.554;9.964;2023-03-01T14:43:55;8.30;99.90
9965;DHT22;5023;53.554;9.964;2023-03-01T14:49:04;8.20;99.90
9965;DHT22;5023;53.554;9.964;2023-03-01T14:54:22;8.10;99.90
9965;DHT22;5023;53.554;9.964;2023-03-01T14:59:27;8.00;99.90
9965;DHT22;5023;53.554;9.964;2023-03-01T15:04:31;7.90;99.90
9965;DHT22;5023;53.554;9.964;2023-03-01T15:09:35;7.80;99.90
9965;DHT22;5023;53.554;9.964;2023-03-01T15:14:40;7.70;99.90
9965;DHT22;5023;53.554;9.964;2023-03-01T15:19:59;7.70;99.90
9965;DHT22;5023;53.554;9.964;2023-03-01T15:25:02;7.70;99.90
9965;DHT22;5023;53.554;9.964;2023-03-01T15:30:06;7.70;99.90
9965;DHT22;5023;53.554;9.964;2023-03-01T15:35:39;7.70;99.90
9965;DHT22;5023;53.554;9.964;2023-03-01T15:40:49;7.70;99.90
9965;DHT22;5023;53.554;9.964;2023-03-01T15:45:56;7.60;99.90
9965;DHT22;5023;53.554;9.964;2023-03-01T15:51:00;7.60;99.90
9965;DHT22;5023;53.554;9.964;2023-03-01T15:56:03;7.50;99.90
9965;DHT22;5023;53.554;9.964;2023-03-01T16:01:11;7.50;99.90
9965;DHT22;5023;53.554;9.964;2023-03-01T16:06:17;7.50;99.90
9965;DHT22;5023;53.554;9.964;2023-03-01T16:11:21;7.40;99.90
9965;DHT22;5023;53.554;9.964;2023-03-01T16:16:30;7.30;99.90
9965;DHT22;5023;53.554;9.964;2023-03-01T16:21:35;7.30;99.90
9965;DHT22;5023;53.554;9.964;2023-03-01T16:26:37;7.30;99.90
9965;DHT22;5023;53.554;9.964;2023-03-01T16:31:40;7.20;99.90
9965;DHT22;5023;53.554;9.964;2023-03-01T16:36:51;7.10;99.90
9965;DHT22;5023;53.554;9.964;2023-03-01T16:42:47;6.90;99.90
9965;DHT22;5023;53.554;9.964;2023-03-01T16:47:50;6.80;99.90
9965;DHT22;5023;53.554;9.964;2023-03-01T16:52:55;6.80;99.90
9965;DHT22;5023;53.554;9.964;2023-03-01T16:57:59;6.80;99.90
9965;DHT22;5023;53.554;9.964;2023-03-01T17:03:01;6.70;99.90
9965;DHT22;5023;53.554;9.964;2023-03-01T17:08:05;6.70;99.90
9965;DHT22;5023;53.554;9.964;2023-03-01T17:13:12;6.70;99.90
9965;DHT22;5023;53.554;9.964;2023-03-01T17:18:14;6.60;99.90
9965;DHT22;5023;53.554;9.964;2023-03-01T17:23:19;6.60;99.90
9965;DHT22;5023;53.554;9.964;2023-03-01T17:28:22;6.50;99.90
9965;DHT22;5023;53.554;9.964;2023-03-01T17:33:28;6.40;99.90
9965;DHT22;5023;53.554;9.964;2023-03-01T17:38:34;6.30;99.90
9965;DHT22;5023;53.554;9.964;2023-03-01T17:43:37;6.20;99.90
9965;DHT22;5023;53.554;9.964;2023-03-01T17:48:40;6.20;99.90
9965;DHT22;5023;53.554;9.964;2023-03-01T17:53:49;6.20;99.90
9965;DHT22;5023;53.554;9.964;2023-03-01T17:58:51;6.10;99.90
9965;DHT22;5023;53.554;9.964;2023-03-01T18:03:54;5.80;99.90
9965;DHT22;5023;53.554;9.964;2023-03-01T18:08:58;5.50;99.90
9965;DHT22;5023;53.554;9.964;2023-03-01T18:14:00;5.30;99.90
9965;DHT22;5023;53.554;9.964;2023-03-01T18:19:02;5.00;99.90
9965;DHT22;5023;53.554;9.964;2023-03-01T18:24:06;4.90;99.90
9965;DHT22;5023;53.554;9.964;2023-03-01T18:29:08;4.70;99.90
9965;DHT22;5023;53.554;9.964;2023-03-01T18:34:11;4.60;99.90
9965;DHT22;5023;53.554;9.964;2023-03-01T18:39:15;4.60;99.90
9965;DHT22;5023;53.554;9.964;2023-03-01T18:44:17;4.50;99.90
9965;DHT22;5023;53.554;9.964;2023-03-01T18:49:20;4.40;99.90
9965;DHT22;5023;53.554;9.964;2023-03-01T18:54:23;4.30;99.90
9965;DHT22;5023;53.554;9.964;2023-03-01T18:59:26;4.30;99.90
9965;DHT22;5023;53.554;9.964;2023-03-01T19:04:29;4.10;99.90
9965;DHT22;5023;53.554;9.964;2023-03-01T19:09:33;3.90;99.90
9965;DHT22;5023;53.554;9.964;2023-03-01T19:14:35;3.60;99.90
9965;DHT22;5023;53.554;9.964;2023-03-01T19:19:38;3.10;99.90
9965;DHT22;5023;53.554;9.964;2023-03-01T19:24:44;3.00;99.90
9965;DHT22;5023;53.554;9.964;2023-03-01T19:29:46;2.90;99.90
9965;DHT22;5023;53.554;9.964;2023-03-01T19:34:49;2.70;99.90
9965;DHT22;5023;53.554;9.964;2023-03-01T19:39:52;2.60;99.90
9965;DHT22;5023;53.554;9.964;2023-03-01T19:44:54;2.60;99.90
9965;DHT22;5023;53.554;9.964;2023-03-01T19:49:56;2.60;99.90
9965;DHT22;5023;53.554;9.964;2023-03-01T19:55:00;2.80;99.90
9965;DHT22;5023;53.554;9.964;2023-03-01T20:00:04;2.80;99.90
9965;DHT22;5023;53.554;9.964;2023-03-01T20:05:07;2.80;99.90
9965;DHT22;5023;53.554;9.964;2023-03-01T20:10:11;2.80;99.90
9965;DHT22;5023;53.554;9.964;2023-03-01T20:15:15;2.80;99.90
9965;DHT22;5023;53.554;9.964;2023-03-01T20:20:17;2.80;99.90
9965;DHT22;5023;53.554;9.964;2023-03-01T20:25:23;2.90;99.90
9965;DHT22;5023;53.554;9.964;2023-03-01T20:30:26;2.90;99.90
9965;DHT22;5023;53.554;9.964;2023-03-01T20:35:28;2.90;99.90
9965;DHT22;5023;53.554;9.964;2023-03-01T20:40:35;2.80;99.90
9965;DHT22;5023;53.554;9.964;2023-03-01T20:45:37;2.90;99.90
9965;DHT22;5023;53.554;9.964;2023-03-01T20:50:40;2.70;99.90
9965;DHT22;5023;53.554;9.964;2023-03-01T20:55:43;2.70;99.90
9965;DHT22;5023;53.554;9.964;2023-03-01T21:00:49;2.70;99.90
9965;DHT22;5023;53.554;9.964;2023-03-01T21:05:54;2.60;99.90
9965;DHT22;5023;53.554;9.964;2023-03-01T21:10:59;2.70;99.90
9965;DHT22;5023;53.554;9.964;2023-03-01T21:16:03;2.70;99.90
9965;DHT22;5023;53.554;9.964;2023-03-01T21:21:09;2.70;99.90
9965;DHT22;5023;53.554;9.964;2023-03-01T21:26:15;2.70;99.90
9965;DHT22;5023;53.554;9.964;2023-03-01T21:31:20;2.70;99.90
9965;DHT22;5023;53.554;9.964;2023-03-01T21:36:23;2.70;99.90
9965;DHT22;5023;53.554;9.964;2023-03-01T21:41:28;2.80;99.90
9965;DHT22;5023;53.554;9.964;2023-03-01T21:46:32;2.90;99.90
9965;DHT22;5023;53.554;9.964;2023-03-01T21:51:36;2.80;99.90
9965;DHT22;5023;53.554;9.964;2023-03-01T21:56:40;2.80;99.90
9965;DHT22;5023;53.554;9.964;2023-03-01T22:01:42;2.90;99.90
9965;DHT22;5023;53.554;9.964;2023-03-01T22:06:46;2.80;99.90
9965;DHT22;5023;53.554;9.964;2023-03-01T22:11:51;2.70;99.90
9965;DHT22;5023;53.554;9.964;2023-03-01T22:16:55;2.80;99.90
9965;DHT22;5023;53.554;9.964;2023-03-01T22:21:58;2.80;99.90
9965;DHT22;5023;53.554;9.964;2023-03-01T22:27:03;2.70;99.90
9965;DHT22;5023;53.554;9.964;2023-03-01T22:32:05;2.70;99.90
9965;DHT22;5023;53.554;9.964;2023-03-01T22:37:07;2.60;99.90
9965;DHT22;5023;53.554;9.964;2023-03-01T22:42:10;2.60;99.90
9965;DHT22;5023;53.554;9.964;2023-03-01T22:47:12;2.40;99.90
9965;DHT22;5023;53.554;9.964;2023-03-01T22:52:14;2.50;99.90
9965;DHT22;5023;53.554;9.964;2023-03-01T22:57:17;2.60;99.90
9965;DHT22;5023;53.554;9.964;2023-03-01T23:02:20;2.60;99.90
9965;DHT22;5023;53.554;9.964;2023-03-01T23:07:22;2.50;99.90
9965;DHT22;5023;53.554;9.964;2023-03-01T23:12:26;2.40;99.90
9965;DHT22;5023;53.554;9.964;2023-03-01T23:17:28;2.50;99.90
9965;DHT22;5023;53.554;9.964;2023-03-01T23:22:30;2.60;99.90
9965;DHT22;5023;53.554;9.964;2023-03-01T23:27:36;2.60;99.90
9965;DHT22;5023;53.554;9.964;2023-03-01T23:32:39;2.50;99.90
9965;DHT22;5023;53.554;9.964;2023-03-01T23:37:41;2.30;99.90
9965;DHT22;5023;53.554;9.964;2023-03-01T23:42:46;2.40;99.90
9965;DHT22;5023;53.554;9.964;2023-03-01T23:47:48;2.30;99.90
9965;DHT22;5023;53.554;9.964;2023-03-01T23:52:50;2.30;99.90
9965;DHT22;5023;53.554;9.964;2023-03-01T23:57:53;2.40;99.90
